createdAt,value
2022-10-22T00:01:03.310Z,14.56
2022-10-22T00:06:06.445Z,14.64
2022-10-22T00:11:16.900Z,14.62
2022-10-22T00:16:19.853Z,14.63
2022-10-22T00:21:22.671Z,14.67
2022-10-22T00:26:26.924Z,14.69
2022-10-22T00:31:30.533Z,14.67
2022-10-22T00:36:33.326Z,14.63
2022-10-22T00:41:37.760Z,14.69
2022-10-22T00:46:41.820Z,14.66
2022-10-22T00:51:44.645Z,14.69
2022-10-22T00:56:49.226Z,14.67
2022-10-22T01:01:53.268Z,14.72
2022-10-22T01:06:56.115Z,14.70
2022-10-22T01:12:07.969Z,14.65
2022-10-22T01:17:17.650Z,14.64
2022-10-22T01:22:26.278Z,14.55
2022-10-22T01:27:53.860Z,14.39
2022-10-22T01:33:02.684Z,14.24
2022-10-22T01:38:09.921Z,14.14
2022-10-22T01:43:13.125Z,13.99
2022-10-22T01:48:30.128Z,13.96
2022-10-22T01:53:41.921Z,13.82
2022-10-22T01:58:54.475Z,13.79
2022-10-22T02:04:07.343Z,13.68
2022-10-22T02:09:12.034Z,13.52
2022-10-22T02:14:17.133Z,13.39
2022-10-22T02:19:27.190Z,13.34
2022-10-22T02:24:30.581Z,13.27
2022-10-22T02:29:40.091Z,13.23
2022-10-22T02:34:45.376Z,13.22
2022-10-22T02:39:49.409Z,13.24
2022-10-22T02:44:52.197Z,13.21
2022-10-22T02:49:56.294Z,13.17
2022-10-22T02:54:59.133Z,13.07
2022-10-22T03:00:01.968Z,13.03
2022-10-22T03:05:07.029Z,12.99
2022-10-22T03:10:10.846Z,12.96
2022-10-22T03:15:13.692Z,12.94
2022-10-22T03:20:18.033Z,12.92
2022-10-22T03:25:23.692Z,13.05
2022-10-22T03:30:26.436Z,13.06
2022-10-22T03:35:31.757Z,13.02
2022-10-22T03:40:34.690Z,13.26
2022-10-22T03:50:42.695Z,13.10
2022-10-22T03:55:45.492Z,13.10
2022-10-22T04:00:48.349Z,13.00
2022-10-22T04:05:52.723Z,12.90
2022-10-22T04:10:55.450Z,12.84
2022-10-22T04:16:07.962Z,12.84
2022-10-22T04:21:14.186Z,12.81
2022-10-22T04:26:18.288Z,12.78
2022-10-22T04:31:23.131Z,12.80
2022-10-22T04:36:28.439Z,12.79
2022-10-22T04:41:33.222Z,12.85
2022-10-22T04:46:36.617Z,12.92
2022-10-22T04:51:40.986Z,12.88
2022-10-22T04:56:43.743Z,12.86
2022-10-22T05:01:46.528Z,12.75
2022-10-22T05:06:50.933Z,12.86
2022-10-22T05:11:54.592Z,12.87
2022-10-22T05:16:57.318Z,12.82
2022-10-22T05:22:03.632Z,12.75
2022-10-22T05:27:06.830Z,12.80
2022-10-22T05:32:10.686Z,12.76
2022-10-22T05:37:14.799Z,12.81
2022-10-22T05:42:17.520Z,12.83
2022-10-22T05:47:20.324Z,12.89
2022-10-22T05:52:24.563Z,12.79
2022-10-22T05:57:27.269Z,12.85
2022-10-22T06:02:30.163Z,12.76
2022-10-22T06:07:34.822Z,12.70
2022-10-22T06:12:37.647Z,12.60
2022-10-22T06:17:40.876Z,12.61
2022-10-22T06:22:44.945Z,12.56
2022-10-22T06:27:50.521Z,12.70
2022-10-22T06:32:53.218Z,12.71
2022-10-22T06:37:57.321Z,12.76
2022-10-22T06:43:02.828Z,12.88
2022-10-22T06:48:06.005Z,12.90
2022-10-22T06:53:10.149Z,12.93
2022-10-22T06:58:12.978Z,13.04
2022-10-22T07:03:16.490Z,13.16
2022-10-22T07:08:20.569Z,13.23
2022-10-22T07:13:23.621Z,13.30
2022-10-22T07:18:26.551Z,13.44
2022-10-22T07:23:30.718Z,13.53
2022-10-22T07:28:33.516Z,13.59
2022-10-22T07:33:37.283Z,13.68
2022-10-22T07:38:41.387Z,13.93
2022-10-22T07:43:45.002Z,14.23
2022-10-22T07:48:48.212Z,14.59
2022-10-22T07:53:52.346Z,14.78
2022-10-22T07:58:55.120Z,15.10
2022-10-22T08:03:57.993Z,15.33
2022-10-22T08:09:02.469Z,15.44
2022-10-22T08:14:05.399Z,15.27
2022-10-22T08:19:08.200Z,15.56
2022-10-22T08:24:13.210Z,15.78
2022-10-22T08:29:16.151Z,16.00
2022-10-22T08:34:19.070Z,16.16
2022-10-22T08:39:23.251Z,16.26
2022-10-22T08:44:47.899Z,16.34
2022-10-22T08:49:50.945Z,16.39
2022-10-22T08:54:58.255Z,16.48
2022-10-22T09:00:07.337Z,16.35
2022-10-22T09:05:29.406Z,16.23
2022-10-22T09:10:37.722Z,16.46
2022-10-22T09:15:43.730Z,16.60
2022-10-22T09:20:55.631Z,16.66
2022-10-22T09:26:00.741Z,16.58
2022-10-22T09:31:03.649Z,16.64
2022-10-22T09:36:07.921Z,16.84
2022-10-22T09:41:12.044Z,16.88
2022-10-22T09:46:18.074Z,16.77
2022-10-22T09:51:23.513Z,16.99
2022-10-22T09:56:30.232Z,17.12
2022-10-22T10:01:35.657Z,17.20
2022-10-22T10:06:41.008Z,17.27
2022-10-22T10:11:50.414Z,17.33
2022-10-22T10:16:59.677Z,17.63
2022-10-22T10:22:11.809Z,17.71
2022-10-22T10:27:23.882Z,17.74
2022-10-22T10:32:45.852Z,17.73
2022-10-22T10:38:00.909Z,17.69
2022-10-22T10:43:12.248Z,17.49
2022-10-22T10:48:38.800Z,17.51
2022-10-22T10:54:16.363Z,17.57
2022-10-22T10:59:44.153Z,17.55
2022-10-22T11:05:14.070Z,17.60
2022-10-22T11:10:28.744Z,17.64
2022-10-22T11:15:36.047Z,17.78
2022-10-22T11:20:51.768Z,17.92
2022-10-22T11:25:54.643Z,17.94
2022-10-22T11:31:04.027Z,17.96
2022-10-22T11:36:08.602Z,18.10
2022-10-22T11:41:15.331Z,18.22
2022-10-22T11:46:31.279Z,18.28
2022-10-22T11:51:36.436Z,18.47
2022-10-22T11:56:40.328Z,18.48
2022-10-22T12:01:49.069Z,18.47
2022-10-22T12:07:00.761Z,18.37
2022-10-22T12:12:16.957Z,18.24
2022-10-22T12:17:23.777Z,18.32
2022-10-22T12:22:29.262Z,18.30
2022-10-22T12:27:37.332Z,18.20
2022-10-22T12:32:41.754Z,18.25
2022-10-22T12:37:45.050Z,18.18
2022-10-22T12:42:49.765Z,18.33
2022-10-22T12:47:59.251Z,18.40
2022-10-22T12:53:02.210Z,18.45
2022-10-22T12:58:07.393Z,18.65
2022-10-22T13:03:26.678Z,18.76
2022-10-22T13:08:47.489Z,19.23
2022-10-22T13:13:51.038Z,19.53
2022-10-22T13:18:55.984Z,19.43
2022-10-22T13:24:00.868Z,19.39
2022-10-22T13:29:10.509Z,19.55
2022-10-22T13:34:18.419Z,19.39
2022-10-22T13:39:23.073Z,19.31
2022-10-22T13:44:25.971Z,18.93
2022-10-22T13:49:30.176Z,18.70
2022-10-22T13:54:33.077Z,18.43
2022-10-22T13:59:35.868Z,18.38
2022-10-22T14:04:42.048Z,18.64
2022-10-22T14:09:45.239Z,18.70
2022-10-22T14:14:48.170Z,18.78
2022-10-22T14:19:52.906Z,18.73
2022-10-22T14:24:55.741Z,19.02
2022-10-22T14:29:59.634Z,19.24
2022-10-22T14:35:04.015Z,19.13
2022-10-22T14:40:08.451Z,18.95
2022-10-22T14:45:17.075Z,18.48
2022-10-22T14:50:21.595Z,18.16
2022-10-22T14:55:26.203Z,18.13
2022-10-22T15:00:29.028Z,18.15
2022-10-22T15:05:33.225Z,17.86
2022-10-22T15:10:38.263Z,17.56
2022-10-22T15:15:43.819Z,17.23
2022-10-22T15:20:56.419Z,17.07
2022-10-22T15:25:59.594Z,16.91
2022-10-22T15:31:02.567Z,17.07
2022-10-22T15:36:14.113Z,16.93
2022-10-22T15:41:16.927Z,17.06
2022-10-22T15:46:21.770Z,16.71
2022-10-22T15:51:26.136Z,16.90
2022-10-22T15:56:30.598Z,16.68
2022-10-22T16:01:36.892Z,16.55
2022-10-22T16:06:43.363Z,16.44
2022-10-22T16:11:46.746Z,16.32
2022-10-22T16:16:51.808Z,16.38
2022-10-22T16:21:59.377Z,16.47
2022-10-22T16:27:02.291Z,16.34
2022-10-22T16:32:08.089Z,16.14
2022-10-22T16:37:12.292Z,16.14
2022-10-22T16:42:22.402Z,16.14
2022-10-22T16:47:25.580Z,15.99
2022-10-22T16:52:34.742Z,16.03
2022-10-22T16:58:02.067Z,16.04
2022-10-22T17:03:08.563Z,15.96
2022-10-22T17:08:19.966Z,15.94
2022-10-22T17:13:27.446Z,15.87
2022-10-22T17:23:55.339Z,15.83
2022-10-22T17:29:01.496Z,15.79
2022-10-22T17:34:09.284Z,15.70
2022-10-22T17:39:18.978Z,15.87
2022-10-22T17:44:22.141Z,15.49
2022-10-22T17:49:25.009Z,15.24
2022-10-22T17:54:29.544Z,15.21
2022-10-22T17:59:33.242Z,15.10
2022-10-22T18:04:36.943Z,15.01
2022-10-22T18:09:42.864Z,15.14
2022-10-22T18:14:47.438Z,15.09
2022-10-22T18:19:50.508Z,15.14
2022-10-22T18:24:55.374Z,15.15
2022-10-22T18:29:58.228Z,15.24
2022-10-22T18:35:01.324Z,15.23
2022-10-22T18:40:08.764Z,15.17
2022-10-22T18:45:17.696Z,15.14
2022-10-22T18:50:20.726Z,15.09
2022-10-22T18:55:25.000Z,15.09
2022-10-22T19:00:32.486Z,15.23
2022-10-22T19:05:35.950Z,15.03
2022-10-22T19:10:40.400Z,14.91
2022-10-22T19:15:43.293Z,14.75
2022-10-22T19:20:48.471Z,14.57
2022-10-22T19:26:02.521Z,14.49
2022-10-22T19:31:06.449Z,14.37
2022-10-22T19:36:11.898Z,14.24
2022-10-22T19:41:21.231Z,14.22
2022-10-22T19:46:25.697Z,14.25
2022-10-22T19:51:30.778Z,14.21
2022-10-22T19:56:37.679Z,14.12
2022-10-22T20:01:40.546Z,14.01
2022-10-22T20:06:46.637Z,13.93
2022-10-22T20:11:50.975Z,13.94
2022-10-22T20:17:01.246Z,13.95
2022-10-22T20:22:28.829Z,13.92
2022-10-22T20:28:23.827Z,13.66
2022-10-22T20:33:29.438Z,13.50
2022-10-22T20:38:32.387Z,13.46
2022-10-22T20:43:35.711Z,13.44
2022-10-22T20:48:40.938Z,13.38
2022-10-22T20:53:43.818Z,13.26
2022-10-22T20:58:48.590Z,13.31
2022-10-22T21:03:53.959Z,13.30
2022-10-22T21:08:56.955Z,13.25
2022-10-22T21:14:03.681Z,13.14
2022-10-22T21:19:07.813Z,13.08
2022-10-22T21:24:11.169Z,13.05
2022-10-22T21:29:14.483Z,13.05
2022-10-22T21:34:18.729Z,12.93
2022-10-22T21:39:21.617Z,13.00
2022-10-22T21:44:24.416Z,12.91
2022-10-22T21:49:28.507Z,12.83
2022-10-22T21:54:31.384Z,12.79
2022-10-22T21:59:37.629Z,12.76
2022-10-22T22:04:42.628Z,12.70
2022-10-22T22:09:45.430Z,12.70
2022-10-22T22:14:50.707Z,12.65
2022-10-22T22:19:55.016Z,12.63
2022-10-22T22:24:57.809Z,12.56
2022-10-22T22:30:03.141Z,12.50
2022-10-22T22:35:07.976Z,12.50
2022-10-22T22:40:13.958Z,12.52
2022-10-22T22:45:16.980Z,12.51
2022-10-22T22:50:21.203Z,12.57
2022-10-22T22:55:24.107Z,12.42
2022-10-22T23:00:27.058Z,12.47
2022-10-22T23:05:31.224Z,12.51
2022-10-22T23:10:33.978Z,12.49
2022-10-22T23:15:40.318Z,12.43
2022-10-22T23:20:44.401Z,12.40
2022-10-22T23:25:47.231Z,12.33
2022-10-22T23:30:52.933Z,12.31
2022-10-22T23:35:57.211Z,12.24
2022-10-22T23:41:00.257Z,12.28
2022-10-22T23:46:03.059Z,12.38
2022-10-22T23:51:08.678Z,12.56
2022-10-22T23:56:13.945Z,12.61
